sensor_id;sensor_type;location;lat;lon;timestamp;pressure;altitude;pressure_sealevel;temperature;humidity
19789;BME280;10054;59.332;18.244;2023-07-29T00:00:23;99694.61;;;13.91;100.00
19789;BME280;10054;59.332;18.244;2023-07-29T00:02:53;99689.30;;;13.91;100.00
19789;BME280;10054;59.332;18.244;2023-07-29T00:05:21;99684.84;;;13.91;100.00
19789;BME280;10054;59.332;18.244;2023-07-29T00:07:50;99682.05;;;13.93;100.00
19789;BME280;10054;59.332;18.244;2023-07-29T00:10:19;99687.70;;;13.94;100.00
19789;BME280;10054;59.332;18.244;2023-07-29T00:12:47;99680.09;;;13.95;100.00
19789;BME280;10054;59.332;18.244;2023-07-29T00:15:16;99681.91;;;13.94;100.00
19789;BME280;10054;59.332;18.244;2023-07-29T00:17:45;99683.93;;;13.96;100.00
19789;BME280;10054;59.332;18.244;2023-07-29T00:20:13;99681.14;;;13.98;100.00
19789;BME280;10054;59.332;18.244;2023-07-29T00:22:42;99677.16;;;13.98;100.00
19789;BME280;10054;59.332;18.244;2023-07-29T00:25:11;99678.48;;;13.98;100.00
19789;BME280;10054;59.332;18.244;2023-07-29T00:27:41;99675.83;;;13.98;100.00
19789;BME280;10054;59.332;18.244;2023-07-29T00:30:10;99666.41;;;13.99;100.00
19789;BME280;10054;59.332;18.244;2023-07-29T00:32:39;99660.41;;;13.97;100.00
19789;BME280;10054;59.332;18.244;2023-07-29T00:35:08;99667.53;;;13.97;100.00
19789;BME280;10054;59.332;18.244;2023-07-29T00:37:37;99656.72;;;13.94;100.00
19789;BME280;10054;59.332;18.244;2023-07-29T00:40:13;99662.86;;;13.95;100.00
19789;BME280;10054;59.332;18.244;2023-07-29T00:42:40;99666.34;;;13.95;100.00
19789;BME280;10054;59.332;18.244;2023-07-29T00:45:10;99661.05;;;13.95;100.00
19789;BME280;10054;59.332;18.244;2023-07-29T00:47:39;99661.18;;;13.94;100.00
19789;BME280;10054;59.332;18.244;2023-07-29T00:50:09;99660.97;;;13.91;100.00
19789;BME280;10054;59.332;18.244;2023-07-29T00:52:39;99662.09;;;13.89;100.00
19789;BME280;10054;59.332;18.244;2023-07-29T00:55:08;99655.25;;;13.86;100.00
19789;BME280;10054;59.332;18.244;2023-07-29T00:57:37;99652.74;;;13.85;100.00
19789;BME280;10054;59.332;18.244;2023-07-29T01:00:07;99649.25;;;13.84;100.00
19789;BME280;10054;59.332;18.244;2023-07-29T01:02:36;99652.88;;;13.83;100.00
19789;BME280;10054;59.332;18.244;2023-07-29T01:05:06;99661.95;;;13.80;100.00
19789;BME280;10054;59.332;18.244;2023-07-29T01:10:46;99652.61;;;13.76;100.00
19789;BME280;10054;59.332;18.244;2023-07-29T01:13:34;99649.61;;;13.75;100.00
19789;BME280;10054;59.332;18.244;2023-07-29T01:16:09;99649.88;;;13.72;100.00
19789;BME280;10054;59.332;18.244;2023-07-29T01:18:31;99648.55;;;13.72;100.00
19789;BME280;10054;59.332;18.244;2023-07-29T01:21:07;99649.74;;;13.74;100.00
19789;BME280;10054;59.332;18.244;2023-07-29T01:23:37;99640.95;;;13.73;100.00
19789;BME280;10054;59.332;18.244;2023-07-29T01:26:06;99637.33;;;13.74;100.00
19789;BME280;10054;59.332;18.244;2023-07-29T01:28:34;99642.98;;;13.75;100.00
19789;BME280;10054;59.332;18.244;2023-07-29T01:31:23;99642.98;;;13.75;100.00
19789;BME280;10054;59.332;18.244;2023-07-29T01:34:04;99640.33;;;13.75;100.00
19789;BME280;10054;59.332;18.244;2023-07-29T01:36:24;99639.14;;;13.74;100.00
19789;BME280;10054;59.332;18.244;2023-07-29T01:38:55;99634.81;;;13.73;100.00
19789;BME280;10054;59.332;18.244;2023-07-29T01:41:25;99637.95;;;13.72;100.00
19789;BME280;10054;59.332;18.244;2023-07-29T01:43:57;99639.28;;;13.72;100.00
19789;BME280;10054;59.332;18.244;2023-07-29T01:46:26;99630.98;;;13.71;100.00
19789;BME280;10054;59.332;18.244;2023-07-29T01:48:54;99636.28;;;13.71;100.00
19789;BME280;10054;59.332;18.244;2023-07-29T01:51:23;99633.28;;;13.70;100.00
19789;BME280;10054;59.332;18.244;2023-07-29T01:53:51;99637.12;;;13.72;100.00
19789;BME280;10054;59.332;18.244;2023-07-29T01:56:20;99629.66;;;13.71;100.00
19789;BME280;10054;59.332;18.244;2023-07-29T01:58:53;99630.35;;;13.73;100.00
19789;BME280;10054;59.332;18.244;2023-07-29T02:01:22;99625.05;;;13.73;100.00
19789;BME280;10054;59.332;18.244;2023-07-29T02:03:51;99624.08;;;13.74;100.00
19789;BME280;10054;59.332;18.244;2023-07-29T02:06:21;99627.56;;;13.75;100.00
19789;BME280;10054;59.332;18.244;2023-07-29T02:08:50;99628.89;;;13.75;100.00
19789;BME280;10054;59.332;18.244;2023-07-29T02:11:19;99630.70;;;13.74;100.00
19789;BME280;10054;59.332;18.244;2023-07-29T02:13:49;99628.67;;;13.72;100.00
19789;BME280;10054;59.332;18.244;2023-07-29T02:16:18;99631.95;;;13.70;100.00
19789;BME280;10054;59.332;18.244;2023-07-29T02:18:46;99622.82;;;13.69;100.00
19789;BME280;10054;59.332;18.244;2023-07-29T02:21:15;99626.94;;;13.67;100.00
19789;BME280;10054;59.332;18.244;2023-07-29T02:23:50;99625.40;;;13.65;100.00
19789;BME280;10054;59.332;18.244;2023-07-29T02:26:19;99622.40;;;13.64;100.00
19789;BME280;10054;59.332;18.244;2023-07-29T02:28:48;99617.45;;;13.65;100.00
19789;BME280;10054;59.332;18.244;2023-07-29T02:31:21;99624.91;;;13.65;100.00
19789;BME280;10054;59.332;18.244;2023-07-29T02:33:50;99627.42;;;13.67;100.00
19789;BME280;10054;59.332;18.244;2023-07-29T02:36:19;99631.89;;;13.66;100.00
19789;BME280;10054;59.332;18.244;2023-07-29T02:38:48;99627.63;;;13.69;100.00
19789;BME280;10054;59.332;18.244;2023-07-29T02:41:17;99625.19;;;13.72;100.00
19789;BME280;10054;59.332;18.244;2023-07-29T02:43:50;99624.56;;;13.74;100.00
19789;BME280;10054;59.332;18.244;2023-07-29T02:46:19;99624.42;;;13.75;100.00
19789;BME280;10054;59.332;18.244;2023-07-29T02:48:49;99626.44;;;13.77;100.00
19789;BME280;10054;59.332;18.244;2023-07-29T02:51:18;99624.84;;;13.80;100.00
19789;BME280;10054;59.332;18.244;2023-07-29T02:53:46;99624.35;;;13.81;100.00
19789;BME280;10054;59.332;18.244;2023-07-29T02:56:15;99628.19;;;13.83;100.00
19789;BME280;10054;59.332;18.244;2023-07-29T02:58:44;99627.91;;;13.86;100.00
19789;BME280;10054;59.332;18.244;2023-07-29T03:01:13;99621.63;;;13.87;100.00
19789;BME280;10054;59.332;18.244;2023-07-29T03:03:41;99619.39;;;13.92;100.00
19789;BME280;10054;59.332;18.244;2023-07-29T03:06:13;99622.80;;;13.98;100.00
19789;BME280;10054;59.332;18.244;2023-07-29T03:08:41;99616.58;;;14.03;100.00
19789;BME280;10054;59.332;18.244;2023-07-29T03:11:14;99613.22;;;14.10;100.00
19789;BME280;10054;59.332;18.244;2023-07-29T03:13:43;99612.36;;;14.33;100.00
19789;BME280;10054;59.332;18.244;2023-07-29T03:16:14;99610.92;;;14.72;100.00
19789;BME280;10054;59.332;18.244;2023-07-29T03:18:45;99608.67;;;15.08;100.00
19789;BME280;10054;59.332;18.244;2023-07-29T03:21:13;99610.46;;;15.53;100.00
19789;BME280;10054;59.332;18.244;2023-07-29T03:23:42;99612.98;;;15.94;100.00
19789;BME280;10054;59.332;18.244;2023-07-29T03:26:10;99611.80;;;16.15;100.00
19789;BME280;10054;59.332;18.244;2023-07-29T03:28:41;99615.79;;;16.15;100.00
19789;BME280;10054;59.332;18.244;2023-07-29T03:31:10;99610.96;;;16.14;100.00
19789;BME280;10054;59.332;18.244;2023-07-29T03:33:39;99608.05;;;16.25;100.00
19789;BME280;10054;59.332;18.244;2023-07-29T03:36:08;99612.23;;;16.36;100.00
19789;BME280;10054;59.332;18.244;2023-07-29T03:38:36;99616.80;;;16.48;100.00
19789;BME280;10054;59.332;18.244;2023-07-29T03:41:10;99613.34;;;16.55;100.00
19789;BME280;10054;59.332;18.244;2023-07-29T03:43:38;99617.70;;;16.60;100.00
19789;BME280;10054;59.332;18.244;2023-07-29T03:46:07;99619.87;;;16.61;100.00
19789;BME280;10054;59.332;18.244;2023-07-29T03:48:36;99617.59;;;16.66;100.00
19789;BME280;10054;59.332;18.244;2023-07-29T03:51:05;99619.96;;;16.73;100.00
19789;BME280;10054;59.332;18.244;2023-07-29T03:53:33;99621.83;;;16.81;100.00
19789;BME280;10054;59.332;18.244;2023-07-29T03:56:03;99625.36;;;16.89;100.00
19789;BME280;10054;59.332;18.244;2023-07-29T03:58:31;99624.57;;;17.01;100.00
19789;BME280;10054;59.332;18.244;2023-07-29T04:01:00;99620.25;;;17.12;100.00
19789;BME280;10054;59.332;18.244;2023-07-29T04:03:29;99617.62;;;17.24;100.00
19789;BME280;10054;59.332;18.244;2023-07-29T04:05:57;99614.98;;;17.36;100.00
19789;BME280;10054;59.332;18.244;2023-07-29T04:08:26;99620.67;;;17.50;100.00
19789;BME280;10054;59.332;18.244;2023-07-29T04:10:55;99615.52;;;17.64;100.00
19789;BME280;10054;59.332;18.244;2023-07-29T04:13:24;99616.89;;;17.81;100.00
19789;BME280;10054;59.332;18.244;2023-07-29T04:15:52;99614.70;;;17.96;99.06
19789;BME280;10054;59.332;18.244;2023-07-29T04:18:21;99619.52;;;18.13;98.17
19789;BME280;10054;59.332;18.244;2023-07-29T04:20:50;99619.67;;;18.28;97.16
19789;BME280;10054;59.332;18.244;2023-07-29T04:23:19;99618.47;;;18.43;95.96
19789;BME280;10054;59.332;18.244;2023-07-29T04:25:47;99608.05;;;18.60;95.10
19789;BME280;10054;59.332;18.244;2023-07-29T04:28:17;99613.71;;;18.73;94.07
19789;BME280;10054;59.332;18.244;2023-07-29T04:30:46;99609.16;;;18.86;93.11
19789;BME280;10054;59.332;18.244;2023-07-29T04:33:14;99606.93;;;18.97;92.36
19789;BME280;10054;59.332;18.244;2023-07-29T04:35:43;99612.20;;;19.14;90.98
19789;BME280;10054;59.332;18.244;2023-07-29T04:38:11;99614.30;;;19.26;90.58
19789;BME280;10054;59.332;18.244;2023-07-29T04:40:40;99614.38;;;19.37;89.65
19789;BME280;10054;59.332;18.244;2023-07-29T04:43:08;99616.97;;;19.49;89.00
19789;BME280;10054;59.332;18.244;2023-07-29T04:45:42;99617.39;;;19.65;88.74
19789;BME280;10054;59.332;18.244;2023-07-29T04:48:07;99625.51;;;19.76;87.35
19789;BME280;10054;59.332;18.244;2023-07-29T04:50:41;99628.63;;;19.83;87.28
19789;BME280;10054;59.332;18.244;2023-07-29T04:53:09;99631.35;;;19.98;86.08
19789;BME280;10054;59.332;18.244;2023-07-29T04:55:38;99630.20;;;20.11;83.76
19789;BME280;10054;59.332;18.244;2023-07-29T04:58:08;99628.06;;;20.25;84.96
19789;BME280;10054;59.332;18.244;2023-07-29T05:00:37;99618.42;;;20.39;84.43
19789;BME280;10054;59.332;18.244;2023-07-29T05:03:05;99620.78;;;20.53;84.48
19789;BME280;10054;59.332;18.244;2023-07-29T05:05:36;99621.30;;;20.67;83.33
19789;BME280;10054;59.332;18.244;2023-07-29T05:08:04;99622.73;;;20.74;83.44
19789;BME280;10054;59.332;18.244;2023-07-29T05:10:34;99624.86;;;20.78;82.84
19789;BME280;10054;59.332;18.244;2023-07-29T05:13:03;99622.23;;;20.85;82.87
19789;BME280;10054;59.332;18.244;2023-07-29T05:15:32;99630.50;;;20.94;81.47
19789;BME280;10054;59.332;18.244;2023-07-29T05:18:02;99623.83;;;21.05;81.70
19789;BME280;10054;59.332;18.244;2023-07-29T05:20:30;99626.67;;;21.18;80.97
19789;BME280;10054;59.332;18.244;2023-07-29T05:22:59;99628.31;;;21.23;80.25
19789;BME280;10054;59.332;18.244;2023-07-29T05:25:28;99624.81;;;21.33;80.29
19789;BME280;10054;59.332;18.244;2023-07-29T05:27:57;99631.22;;;21.43;80.14
19789;BME280;10054;59.332;18.244;2023-07-29T05:30:25;99629.69;;;21.44;78.79
19789;BME280;10054;59.332;18.244;2023-07-29T05:32:55;99625.34;;;21.43;79.68
19789;BME280;10054;59.332;18.244;2023-07-29T05:35:25;99625.66;;;21.44;79.96
19789;BME280;10054;59.332;18.244;2023-07-29T05:37:53;99626.05;;;21.52;79.99
19789;BME280;10054;59.332;18.244;2023-07-29T05:40:22;99623.47;;;21.54;79.74
19789;BME280;10054;59.332;18.244;2023-07-29T05:42:51;99629.73;;;21.61;79.30
19789;BME280;10054;59.332;18.244;2023-07-29T05:45:19;99619.64;;;21.63;78.09
19789;BME280;10054;59.332;18.244;2023-07-29T05:47:50;99628.72;;;21.62;79.10
19789;BME280;10054;59.332;18.244;2023-07-29T05:50:18;99625.45;;;21.67;78.25
19789;BME280;10054;59.332;18.244;2023-07-29T05:52:47;99629.80;;;21.68;78.64
19789;BME280;10054;59.332;18.244;2023-07-29T05:55:17;99626.87;;;21.74;78.56
19789;BME280;10054;59.332;18.244;2023-07-29T05:57:45;99633.19;;;21.77;78.18
19789;BME280;10054;59.332;18.244;2023-07-29T06:00:14;99639.45;;;21.84;78.78
19789;BME280;10054;59.332;18.244;2023-07-29T06:02:45;99632.48;;;21.89;78.16
19789;BME280;10054;59.332;18.244;2023-07-29T06:05:15;99629.92;;;21.92;77.51
19789;BME280;10054;59.332;18.244;2023-07-29T06:07:44;99624.62;;;21.88;76.88
19789;BME280;10054;59.332;18.244;2023-07-29T06:10:15;99619.45;;;21.86;76.92
19789;BME280;10054;59.332;18.244;2023-07-29T06:12:46;99630.51;;;21.87;77.85
19789;BME280;10054;59.332;18.244;2023-07-29T06:15:15;99624.17;;;21.84;77.45
19789;BME280;10054;59.332;18.244;2023-07-29T06:17:44;99623.53;;;21.93;76.94
19789;BME280;10054;59.332;18.244;2023-07-29T06:20:13;99626.02;;;21.94;75.98
19789;BME280;10054;59.332;18.244;2023-07-29T06:22:42;99632.03;;;21.96;76.24
19789;BME280;10054;59.332;18.244;2023-07-29T06:25:12;99631.30;;;22.03;76.47
19789;BME280;10054;59.332;18.244;2023-07-29T06:27:41;99631.80;;;22.02;76.24
19789;BME280;10054;59.332;18.244;2023-07-29T06:30:09;99629.44;;;22.03;75.80
19789;BME280;10054;59.332;18.244;2023-07-29T06:32:38;99628.77;;;22.01;75.99
19789;BME280;10054;59.332;18.244;2023-07-29T06:35:07;99632.35;;;21.97;75.64
19789;BME280;10054;59.332;18.244;2023-07-29T06:37:35;99629.48;;;21.99;75.33
19789;BME280;10054;59.332;18.244;2023-07-29T06:40:06;99630.63;;;22.01;74.59
19789;BME280;10054;59.332;18.244;2023-07-29T06:42:34;99625.77;;;22.00;75.06
19789;BME280;10054;59.332;18.244;2023-07-29T06:45:05;99630.46;;;22.02;74.98
19789;BME280;10054;59.332;18.244;2023-07-29T06:47:34;99631.30;;;22.03;74.57
19789;BME280;10054;59.332;18.244;2023-07-29T06:50:03;99631.52;;;21.97;73.50
19789;BME280;10054;59.332;18.244;2023-07-29T06:52:31;99636.19;;;21.99;74.67
19789;BME280;10054;59.332;18.244;2023-07-29T06:55:00;99636.28;;;22.06;74.15
19789;BME280;10054;59.332;18.244;2023-07-29T06:57:28;99633.45;;;22.14;74.55
19789;BME280;10054;59.332;18.244;2023-07-29T06:59:57;99633.83;;;22.21;74.47
19789;BME280;10054;59.332;18.244;2023-07-29T07:02:26;99633.23;;;22.26;74.08
19789;BME280;10054;59.332;18.244;2023-07-29T07:04:55;99633.44;;;22.24;74.31
19789;BME280;10054;59.332;18.244;2023-07-29T07:07:24;99633.75;;;22.25;73.67
19789;BME280;10054;59.332;18.244;2023-07-29T07:09:52;99631.90;;;22.26;73.07
19789;BME280;10054;59.332;18.244;2023-07-29T07:12:21;99632.30;;;22.29;73.55
19789;BME280;10054;59.332;18.244;2023-07-29T07:14:49;99640.69;;;22.30;73.32
19789;BME280;10054;59.332;18.244;2023-07-29T07:17:18;99639.47;;;22.33;73.12
19789;BME280;10054;59.332;18.244;2023-07-29T07:19:47;99638.19;;;22.29;72.79
19789;BME280;10054;59.332;18.244;2023-07-29T07:22:16;99645.59;;;22.38;73.18
19789;BME280;10054;59.332;18.244;2023-07-29T07:24:45;99649.16;;;22.45;73.14
19789;BME280;10054;59.332;18.244;2023-07-29T07:27:13;99650.75;;;22.50;72.04
19789;BME280;10054;59.332;18.244;2023-07-29T07:29:44;99645.89;;;22.49;71.46
19789;BME280;10054;59.332;18.244;2023-07-29T07:32:12;99649.89;;;22.60;71.57
19789;BME280;10054;59.332;18.244;2023-07-29T07:34:41;99646.61;;;22.65;71.86
19789;BME280;10054;59.332;18.244;2023-07-29T07:37:09;99648.63;;;22.73;72.42
19789;BME280;10054;59.332;18.244;2023-07-29T07:39:38;99651.55;;;22.78;71.58
19789;BME280;10054;59.332;18.244;2023-07-29T07:42:07;99652.53;;;22.81;70.95
19789;BME280;10054;59.332;18.244;2023-07-29T07:44:35;99644.98;;;22.81;70.66
19789;BME280;10054;59.332;18.244;2023-07-29T07:47:04;99643.95;;;22.82;70.78
19789;BME280;10054;59.332;18.244;2023-07-29T07:49:32;99636.20;;;22.83;70.93
19789;BME280;10054;59.332;18.244;2023-07-29T07:52:01;99636.20;;;22.83;70.32
19789;BME280;10054;59.332;18.244;2023-07-29T07:54:30;99636.08;;;22.80;70.32
19789;BME280;10054;59.332;18.244;2023-07-29T07:56:58;99634.45;;;22.86;70.60
19789;BME280;10054;59.332;18.244;2023-07-29T07:59:28;99629.00;;;22.90;70.76
19789;BME280;10054;59.332;18.244;2023-07-29T08:01:57;99636.16;;;22.93;71.20
19789;BME280;10054;59.332;18.244;2023-07-29T08:04:25;99643.73;;;23.01;71.17
19789;BME280;10054;59.332;18.244;2023-07-29T08:06:54;99643.53;;;23.09;70.27
19789;BME280;10054;59.332;18.244;2023-07-29T08:09:22;99638.81;;;23.17;70.11
19789;BME280;10054;59.332;18.244;2023-07-29T08:11:51;99640.27;;;23.20;69.32
19789;BME280;10054;59.332;18.244;2023-07-29T08:14:19;99635.23;;;23.27;69.03
19789;BME280;10054;59.332;18.244;2023-07-29T08:16:48;99631.62;;;23.31;68.38
19789;BME280;10054;59.332;18.244;2023-07-29T08:19:17;99630.16;;;23.28;67.61
19789;BME280;10054;59.332;18.244;2023-07-29T08:21:45;99633.39;;;23.35;68.85
19789;BME280;10054;59.332;18.244;2023-07-29T08:24:14;99626.91;;;23.46;68.56
19789;BME280;10054;59.332;18.244;2023-07-29T08:26:43;99624.73;;;23.46;67.46
19789;BME280;10054;59.332;18.244;2023-07-29T08:29:11;99628.36;;;23.49;67.32
19789;BME280;10054;59.332;18.244;2023-07-29T08:31:40;99626.55;;;23.56;66.84
19789;BME280;10054;59.332;18.244;2023-07-29T08:34:10;99626.45;;;23.60;67.32
19789;BME280;10054;59.332;18.244;2023-07-29T08:36:38;99627.19;;;23.65;65.31
19789;BME280;10054;59.332;18.244;2023-07-29T08:39:07;99635.07;;;23.73;66.20
19789;BME280;10054;59.332;18.244;2023-07-29T08:41:51;99633.70;;;23.79;65.71
19789;BME280;10054;59.332;18.244;2023-07-29T08:44:21;99635.58;;;23.92;65.41
19789;BME280;10054;59.332;18.244;2023-07-29T08:46:51;99633.83;;;23.95;64.29
19789;BME280;10054;59.332;18.244;2023-07-29T08:49:21;99630.52;;;24.00;64.91
19789;BME280;10054;59.332;18.244;2023-07-29T08:51:51;99624.61;;;24.00;64.35
19789;BME280;10054;59.332;18.244;2023-07-29T08:54:20;99629.16;;;24.06;64.26
19789;BME280;10054;59.332;18.244;2023-07-29T08:56:50;99631.97;;;24.09;63.97
19789;BME280;10054;59.332;18.244;2023-07-29T08:59:20;99628.44;;;24.08;63.20
19789;BME280;10054;59.332;18.244;2023-07-29T09:01:49;99625.44;;;24.14;63.42
19789;BME280;10054;59.332;18.244;2023-07-29T09:04:20;99629.27;;;24.15;63.14
19789;BME280;10054;59.332;18.244;2023-07-29T09:06:51;99628.23;;;24.16;62.47
19789;BME280;10054;59.332;18.244;2023-07-29T09:09:20;99630.62;;;24.22;62.02
19789;BME280;10054;59.332;18.244;2023-07-29T09:11:49;99625.67;;;24.26;61.88
19789;BME280;10054;59.332;18.244;2023-07-29T09:14:18;99633.02;;;24.34;61.77
19789;BME280;10054;59.332;18.244;2023-07-29T09:16:48;99628.05;;;24.38;61.16
19789;BME280;10054;59.332;18.244;2023-07-29T09:19:16;99630.02;;;24.40;60.20
19789;BME280;10054;59.332;18.244;2023-07-29T09:21:46;99631.67;;;24.41;59.67
19789;BME280;10054;59.332;18.244;2023-07-29T09:24:16;99630.52;;;24.46;59.57
19789;BME280;10054;59.332;18.244;2023-07-29T09:26:52;99626.67;;;24.51;59.16
19789;BME280;10054;59.332;18.244;2023-07-29T09:29:23;99633.80;;;24.54;58.61
19789;BME280;10054;59.332;18.244;2023-07-29T09:31:51;99631.20;;;24.57;57.61
19789;BME280;10054;59.332;18.244;2023-07-29T09:34:21;99630.16;;;24.58;57.49
19789;BME280;10054;59.332;18.244;2023-07-29T09:36:51;99629.20;;;24.68;58.08
19789;BME280;10054;59.332;18.244;2023-07-29T09:39:22;99632.22;;;24.63;56.11
19789;BME280;10054;59.332;18.244;2023-07-29T09:41:51;99638.64;;;24.68;56.80
19789;BME280;10054;59.332;18.244;2023-07-29T09:44:20;99641.73;;;24.78;57.65
19789;BME280;10054;59.332;18.244;2023-07-29T09:46:49;99644.94;;;24.84;57.12
19789;BME280;10054;59.332;18.244;2023-07-29T09:49:17;99639.44;;;24.82;56.03
19789;BME280;10054;59.332;18.244;2023-07-29T09:51:46;99631.54;;;24.87;55.58
19789;BME280;10054;59.332;18.244;2023-07-29T09:54:15;99631.84;;;24.88;54.30
19789;BME280;10054;59.332;18.244;2023-07-29T09:56:46;99636.09;;;24.93;55.73
19789;BME280;10054;59.332;18.244;2023-07-29T09:59:18;99630.27;;;25.03;55.79
19789;BME280;10054;59.332;18.244;2023-07-29T10:01:47;99639.81;;;25.05;54.97
19789;BME280;10054;59.332;18.244;2023-07-29T10:04:16;99634.94;;;25.05;55.03
19789;BME280;10054;59.332;18.244;2023-07-29T10:06:47;99637.00;;;25.09;55.10
19789;BME280;10054;59.332;18.244;2023-07-29T10:09:16;99639.58;;;25.13;54.44
19789;BME280;10054;59.332;18.244;2023-07-29T10:11:45;99638.94;;;25.18;54.40
19789;BME280;10054;59.332;18.244;2023-07-29T10:14:14;99629.39;;;25.15;53.35
19789;BME280;10054;59.332;18.244;2023-07-29T10:16:44;99628.56;;;25.15;52.94
19789;BME280;10054;59.332;18.244;2023-07-29T10:19:14;99632.70;;;25.17;53.44
19789;BME280;10054;59.332;18.244;2023-07-29T10:21:45;99627.49;;;25.23;53.65
19789;BME280;10054;59.332;18.244;2023-07-29T10:24:19;99631.08;;;25.26;52.96
19789;BME280;10054;59.332;18.244;2023-07-29T10:26:51;99625.47;;;25.27;52.49
19789;BME280;10054;59.332;18.244;2023-07-29T10:29:20;99624.12;;;25.27;51.74
19789;BME280;10054;59.332;18.244;2023-07-29T10:31:52;99619.42;;;25.32;52.39
19789;BME280;10054;59.332;18.244;2023-07-29T10:34:21;99630.13;;;25.29;52.22
19789;BME280;10054;59.332;18.244;2023-07-29T10:36:50;99620.03;;;25.34;52.51
19789;BME280;10054;59.332;18.244;2023-07-29T10:39:26;99623.12;;;25.37;52.64
19789;BME280;10054;59.332;18.244;2023-07-29T10:42:02;99617.78;;;25.46;52.45
19789;BME280;10054;59.332;18.244;2023-07-29T10:44:45;99620.02;;;25.56;52.98
19789;BME280;10054;59.332;18.244;2023-07-29T10:49:52;99618.45;;;25.58;52.78
19789;BME280;10054;59.332;18.244;2023-07-29T10:52:41;99625.19;;;25.64;53.30
19789;BME280;10054;59.332;18.244;2023-07-29T10:55:35;99623.19;;;25.69;53.12
19789;BME280;10054;59.332;18.244;2023-07-29T10:58:15;99621.92;;;25.71;52.20
19789;BME280;10054;59.332;18.244;2023-07-29T11:00:47;99622.84;;;25.74;52.81
19789;BME280;10054;59.332;18.244;2023-07-29T11:03:17;99622.62;;;25.76;52.64
19789;BME280;10054;59.332;18.244;2023-07-29T11:05:50;99628.55;;;25.75;52.01
19789;BME280;10054;59.332;18.244;2023-07-29T11:08:28;99625.31;;;25.76;52.36
19789;BME280;10054;59.332;18.244;2023-07-29T11:11:08;99624.88;;;25.79;52.60
19789;BME280;10054;59.332;18.244;2023-07-29T11:13:38;99624.05;;;25.78;52.35
19789;BME280;10054;59.332;18.244;2023-07-29T11:16:09;99626.31;;;25.81;51.97
19789;BME280;10054;59.332;18.244;2023-07-29T11:18:37;99625.36;;;25.85;51.40
19789;BME280;10054;59.332;18.244;2023-07-29T11:21:07;99631.98;;;25.89;49.80
19789;BME280;10054;59.332;18.244;2023-07-29T11:23:37;99626.66;;;25.92;49.64
19789;BME280;10054;59.332;18.244;2023-07-29T11:26:05;99630.50;;;25.93;49.49
19789;BME280;10054;59.332;18.244;2023-07-29T11:28:38;99632.28;;;25.90;49.29
19789;BME280;10054;59.332;18.244;2023-07-29T11:31:07;99627.84;;;25.86;49.73
19789;BME280;10054;59.332;18.244;2023-07-29T11:33:38;99627.19;;;25.75;49.38
19789;BME280;10054;59.332;18.244;2023-07-29T11:36:16;99626.06;;;25.74;50.03
19789;BME280;10054;59.332;18.244;2023-07-29T11:38:40;99625.31;;;25.76;49.33
19789;BME280;10054;59.332;18.244;2023-07-29T11:41:08;99633.20;;;25.77;48.57
19789;BME280;10054;59.332;18.244;2023-07-29T11:43:38;99631.12;;;25.79;48.96
19789;BME280;10054;59.332;18.244;2023-07-29T11:46:08;99629.16;;;25.77;47.66
19789;BME280;10054;59.332;18.244;2023-07-29T11:48:37;99631.94;;;25.80;47.62
19789;BME280;10054;59.332;18.244;2023-07-29T11:51:06;99629.84;;;25.82;47.73
19789;BME280;10054;59.332;18.244;2023-07-29T11:53:35;99627.06;;;25.79;48.12
19789;BME280;10054;59.332;18.244;2023-07-29T11:56:05;99626.19;;;25.85;48.15
19789;BME280;10054;59.332;18.244;2023-07-29T11:58:33;99625.66;;;25.86;48.16
19789;BME280;10054;59.332;18.244;2023-07-29T12:01:02;99626.80;;;25.88;47.47
19789;BME280;10054;59.332;18.244;2023-07-29T12:03:31;99631.45;;;25.90;47.21
19789;BME280;10054;59.332;18.244;2023-07-29T12:06:00;99634.16;;;25.90;47.39
19789;BME280;10054;59.332;18.244;2023-07-29T12:08:32;99640.39;;;25.90;46.72
19789;BME280;10054;59.332;18.244;2023-07-29T12:11:01;99635.59;;;25.92;46.99
19789;BME280;10054;59.332;18.244;2023-07-29T12:13:29;99630.72;;;26.01;46.88
19789;BME280;10054;59.332;18.244;2023-07-29T12:16:02;99637.86;;;26.04;47.26
19789;BME280;10054;59.332;18.244;2023-07-29T12:18:36;99634.50;;;26.09;46.99
19789;BME280;10054;59.332;18.244;2023-07-29T12:21:05;99638.64;;;26.11;47.07
19789;BME280;10054;59.332;18.244;2023-07-29T12:23:33;99643.61;;;26.14;46.74
19789;BME280;10054;59.332;18.244;2023-07-29T12:26:02;99630.00;;;26.12;46.59
19789;BME280;10054;59.332;18.244;2023-07-29T12:28:30;99632.80;;;26.14;46.87
19789;BME280;10054;59.332;18.244;2023-07-29T12:30:59;99631.22;;;26.16;46.96
19789;BME280;10054;59.332;18.244;2023-07-29T12:33:33;99630.61;;;26.14;46.69
19789;BME280;10054;59.332;18.244;2023-07-29T12:36:03;99632.27;;;26.15;46.55
19789;BME280;10054;59.332;18.244;2023-07-29T12:38:31;99625.81;;;26.16;45.65
19789;BME280;10054;59.332;18.244;2023-07-29T12:41:00;99632.21;;;26.22;45.98
19789;BME280;10054;59.332;18.244;2023-07-29T12:43:29;99620.87;;;26.22;45.90
19789;BME280;10054;59.332;18.244;2023-07-29T12:45:59;99637.48;;;26.26;45.78
19789;BME280;10054;59.332;18.244;2023-07-29T12:48:28;99624.34;;;26.29;45.29
19789;BME280;10054;59.332;18.244;2023-07-29T12:50:57;99626.22;;;26.29;44.95
19789;BME280;10054;59.332;18.244;2023-07-29T12:53:26;99630.70;;;26.16;44.55
19789;BME280;10054;59.332;18.244;2023-07-29T12:55:56;99624.55;;;26.18;44.78
19789;BME280;10054;59.332;18.244;2023-07-29T12:58:24;99619.97;;;26.19;44.82
19789;BME280;10054;59.332;18.244;2023-07-29T13:00:53;99628.30;;;26.17;45.09
19789;BME280;10054;59.332;18.244;2023-07-29T13:03:21;99629.04;;;26.15;45.24
19789;BME280;10054;59.332;18.244;2023-07-29T13:05:50;99625.59;;;26.17;44.94